Ana Sayfa
METAR-TAF:

METAR-TAF

Havaalanları :

Niamey, Nijer

Enlem: 13-29N, Boylam: 002-10E, yükseklik: 223 m

Güncel hava durumu gözlemi

Rapor saat 07:00 UTC de 46 dakika önce yapıldı.
Rüzgar değişken yönden 3 kt
Sıcaklık 31°C
Nem 10%
Basınç 1010 hPa
Görüş mesafesi: 8000 m

METAR: DRRN 210700Z VRB03KT 8000 NSC 31/M04 Q1010 BECMG 4000 DU

Saat: 08:46 (07:46 UTC)

Tahmin

Rapor saat 05:00 UTC de 2 saat ve 46 dakika önce yapıldı.
Ayın 21'si saat 06 UTC'den ayın 22'si saat 12 UTC'ye kadar geçerli Tahmin
Rüzgar kuzeydoğudan 10 kt
Görüş mesafesi: 8000 m
Geçici
ayın 21'si saat 06 UTC'den ayın 21'si saat 09 UTC'ye kadar
Görüş mesafesi: 3500 m
yaygın toz
Geçici
ayın 21'si saat 17 UTC'den ayın 21'si saat 20 UTC'ye kadar
Görüş mesafesi: 4000 m
yaygın toz

TAF: DRRN 210500Z 2106/2212 04010KT 8000 NSC TEMPO 2106/2109 3500 DU TEMPO 2117/2120 4000 DU

4.000'den fazla havaalanı için hava durumu gözlemleri ve tahminleri (METAR ve TAF raporları).

Kullanılabilir istasyonlar harita üzerinde sarı ve kırmızı noktalarla gösterilir.

İstasyonun adını görmek için fareyi noktanın üzerinde gezdirin.

Sonrasında hava gözlem ve tahminlerini görmek için tıklayın.

Haritayı değiştirmek için: yaklaştırmak için siyah artı işaretli yeşil düğmeye ve uzaklaştırmak için de eksi işaretli düğmeye hızla tıklayın; bitişik haritalar için yeşil okları kullanın.


METAR-TAF: